sensor_id;sensor_type;location;lat;lon;timestamp;P1;durP1;ratioP1;P2;durP2;ratioP2
32407;SDS011;18869;55.970;37.502;2023-07-31T00:01:16;14.27;;;8.13;;
32407;SDS011;18869;55.970;37.502;2023-07-31T00:03:45;12.13;;;8.70;;
32407;SDS011;18869;55.970;37.502;2023-07-31T00:06:11;9.83;;;8.33;;
32407;SDS011;18869;55.970;37.502;2023-07-31T00:08:38;17.00;;;8.90;;
32407;SDS011;18869;55.970;37.502;2023-07-31T00:11:05;8.90;;;7.50;;
32407;SDS011;18869;55.970;37.502;2023-07-31T00:13:33;12.60;;;8.17;;
32407;SDS011;18869;55.970;37.502;2023-07-31T00:16:00;13.43;;;6.77;;
32407;SDS011;18869;55.970;37.502;2023-07-31T00:18:28;8.57;;;7.33;;
32407;SDS011;18869;55.970;37.502;2023-07-31T00:20:54;11.27;;;7.97;;
32407;SDS011;18869;55.970;37.502;2023-07-31T00:23:22;8.80;;;6.83;;
32407;SDS011;18869;55.970;37.502;2023-07-31T00:25:49;10.10;;;6.70;;
32407;SDS011;18869;55.970;37.502;2023-07-31T00:28:17;9.40;;;6.87;;
32407;SDS011;18869;55.970;37.502;2023-07-31T00:30:45;17.40;;;7.67;;
32407;SDS011;18869;55.970;37.502;2023-07-31T00:33:13;18.23;;;8.23;;
32407;SDS011;18869;55.970;37.502;2023-07-31T00:35:40;9.47;;;6.37;;
32407;SDS011;18869;55.970;37.502;2023-07-31T00:38:07;7.33;;;6.50;;
32407;SDS011;18869;55.970;37.502;2023-07-31T00:40:34;11.37;;;7.50;;
32407;SDS011;18869;55.970;37.502;2023-07-31T00:43:02;8.23;;;6.93;;
32407;SDS011;18869;55.970;37.502;2023-07-31T00:45:29;8.17;;;6.23;;
32407;SDS011;18869;55.970;37.502;2023-07-31T00:47:57;11.30;;;7.57;;
32407;SDS011;18869;55.970;37.502;2023-07-31T00:50:24;10.43;;;6.73;;
32407;SDS011;18869;55.970;37.502;2023-07-31T00:52:51;7.70;;;6.50;;
32407;SDS011;18869;55.970;37.502;2023-07-31T00:55:18;11.17;;;7.30;;
32407;SDS011;18869;55.970;37.502;2023-07-31T00:57:47;9.93;;;7.70;;
32407;SDS011;18869;55.970;37.502;2023-07-31T01:00:14;10.70;;;7.47;;
32407;SDS011;18869;55.970;37.502;2023-07-31T01:02:42;11.07;;;6.77;;
32407;SDS011;18869;55.970;37.502;2023-07-31T01:05:10;12.97;;;7.77;;
32407;SDS011;18869;55.970;37.502;2023-07-31T01:07:39;9.43;;;7.00;;
32407;SDS011;18869;55.970;37.502;2023-07-31T01:10:14;9.10;;;6.33;;
32407;SDS011;18869;55.970;37.502;2023-07-31T01:12:45;7.50;;;6.13;;
32407;SDS011;18869;55.970;37.502;2023-07-31T01:15:13;8.43;;;5.97;;
32407;SDS011;18869;55.970;37.502;2023-07-31T01:17:41;9.53;;;6.20;;
32407;SDS011;18869;55.970;37.502;2023-07-31T01:20:10;8.13;;;6.73;;
32407;SDS011;18869;55.970;37.502;2023-07-31T01:22:48;9.60;;;7.73;;
32407;SDS011;18869;55.970;37.502;2023-07-31T01:25:32;7.97;;;6.93;;
32407;SDS011;18869;55.970;37.502;2023-07-31T01:28:11;7.60;;;6.10;;
32407;SDS011;18869;55.970;37.502;2023-07-31T01:30:41;11.23;;;6.50;;
32407;SDS011;18869;55.970;37.502;2023-07-31T01:33:11;9.03;;;6.13;;
32407;SDS011;18869;55.970;37.502;2023-07-31T01:35:39;9.73;;;6.27;;
32407;SDS011;18869;55.970;37.502;2023-07-31T01:38:08;10.30;;;6.30;;
32407;SDS011;18869;55.970;37.502;2023-07-31T01:40:35;6.90;;;6.27;;
32407;SDS011;18869;55.970;37.502;2023-07-31T01:43:03;8.53;;;6.40;;
32407;SDS011;18869;55.970;37.502;2023-07-31T01:45:30;7.67;;;5.47;;
32407;SDS011;18869;55.970;37.502;2023-07-31T01:47:57;10.77;;;6.03;;
32407;SDS011;18869;55.970;37.502;2023-07-31T01:50:24;8.43;;;5.93;;
32407;SDS011;18869;55.970;37.502;2023-07-31T01:52:51;9.00;;;6.63;;
32407;SDS011;18869;55.970;37.502;2023-07-31T01:55:18;10.03;;;7.03;;
32407;SDS011;18869;55.970;37.502;2023-07-31T01:57:46;9.13;;;6.30;;
32407;SDS011;18869;55.970;37.502;2023-07-31T02:00:15;9.03;;;6.73;;
32407;SDS011;18869;55.970;37.502;2023-07-31T02:02:45;11.50;;;7.33;;
32407;SDS011;18869;55.970;37.502;2023-07-31T02:05:12;7.90;;;7.10;;
32407;SDS011;18869;55.970;37.502;2023-07-31T02:07:39;12.00;;;6.80;;
32407;SDS011;18869;55.970;37.502;2023-07-31T02:10:06;9.73;;;6.90;;
32407;SDS011;18869;55.970;37.502;2023-07-31T02:12:36;10.90;;;7.50;;
32407;SDS011;18869;55.970;37.502;2023-07-31T02:15:04;9.83;;;6.60;;
32407;SDS011;18869;55.970;37.502;2023-07-31T02:17:34;9.80;;;6.27;;
32407;SDS011;18869;55.970;37.502;2023-07-31T02:20:01;9.00;;;6.97;;
32407;SDS011;18869;55.970;37.502;2023-07-31T02:22:32;11.87;;;6.67;;
32407;SDS011;18869;55.970;37.502;2023-07-31T02:25:00;8.20;;;6.80;;
32407;SDS011;18869;55.970;37.502;2023-07-31T02:27:30;10.43;;;6.87;;
32407;SDS011;18869;55.970;37.502;2023-07-31T02:29:57;8.67;;;7.47;;
32407;SDS011;18869;55.970;37.502;2023-07-31T02:32:25;12.83;;;8.20;;
32407;SDS011;18869;55.970;37.502;2023-07-31T02:34:54;12.77;;;8.37;;
32407;SDS011;18869;55.970;37.502;2023-07-31T02:37:21;10.10;;;7.97;;
32407;SDS011;18869;55.970;37.502;2023-07-31T02:39:48;13.73;;;8.40;;
32407;SDS011;18869;55.970;37.502;2023-07-31T02:42:16;10.67;;;8.30;;
32407;SDS011;18869;55.970;37.502;2023-07-31T02:44:43;9.97;;;7.67;;
32407;SDS011;18869;55.970;37.502;2023-07-31T02:47:10;11.00;;;7.80;;
32407;SDS011;18869;55.970;37.502;2023-07-31T02:49:37;14.20;;;8.07;;
32407;SDS011;18869;55.970;37.502;2023-07-31T02:52:05;11.73;;;7.97;;
32407;SDS011;18869;55.970;37.502;2023-07-31T02:54:32;13.57;;;8.43;;
32407;SDS011;18869;55.970;37.502;2023-07-31T02:57:00;12.00;;;9.07;;
32407;SDS011;18869;55.970;37.502;2023-07-31T02:59:27;11.83;;;8.57;;
32407;SDS011;18869;55.970;37.502;2023-07-31T03:01:55;10.07;;;8.27;;
32407;SDS011;18869;55.970;37.502;2023-07-31T03:04:22;9.47;;;7.60;;
32407;SDS011;18869;55.970;37.502;2023-07-31T03:06:49;11.07;;;7.67;;
32407;SDS011;18869;55.970;37.502;2023-07-31T03:09:17;10.00;;;7.70;;
32407;SDS011;18869;55.970;37.502;2023-07-31T03:11:45;11.77;;;8.27;;
32407;SDS011;18869;55.970;37.502;2023-07-31T03:14:12;8.27;;;7.23;;
32407;SDS011;18869;55.970;37.502;2023-07-31T03:16:38;10.77;;;7.63;;
32407;SDS011;18869;55.970;37.502;2023-07-31T03:19:06;7.87;;;7.03;;
32407;SDS011;18869;55.970;37.502;2023-07-31T03:21:33;11.50;;;7.00;;
32407;SDS011;18869;55.970;37.502;2023-07-31T03:24:00;10.10;;;6.53;;
32407;SDS011;18869;55.970;37.502;2023-07-31T03:26:30;7.03;;;5.93;;
32407;SDS011;18869;55.970;37.502;2023-07-31T03:28:57;7.43;;;6.30;;
32407;SDS011;18869;55.970;37.502;2023-07-31T03:31:26;9.50;;;7.07;;
32407;SDS011;18869;55.970;37.502;2023-07-31T03:33:54;9.07;;;6.67;;
32407;SDS011;18869;55.970;37.502;2023-07-31T03:36:21;9.23;;;6.30;;
32407;SDS011;18869;55.970;37.502;2023-07-31T03:38:48;7.70;;;6.67;;
32407;SDS011;18869;55.970;37.502;2023-07-31T03:41:15;6.47;;;5.87;;
32407;SDS011;18869;55.970;37.502;2023-07-31T03:43:45;6.73;;;5.23;;
32407;SDS011;18869;55.970;37.502;2023-07-31T03:46:12;6.63;;;5.67;;
32407;SDS011;18869;55.970;37.502;2023-07-31T03:48:40;7.10;;;5.13;;
32407;SDS011;18869;55.970;37.502;2023-07-31T03:51:07;7.57;;;5.20;;
32407;SDS011;18869;55.970;37.502;2023-07-31T03:53:34;6.80;;;5.27;;
32407;SDS011;18869;55.970;37.502;2023-07-31T03:56:01;5.63;;;5.13;;
32407;SDS011;18869;55.970;37.502;2023-07-31T03:58:28;7.80;;;4.70;;
32407;SDS011;18869;55.970;37.502;2023-07-31T04:00:56;9.80;;;4.87;;
32407;SDS011;18869;55.970;37.502;2023-07-31T04:03:23;7.30;;;4.67;;
32407;SDS011;18869;55.970;37.502;2023-07-31T04:05:50;5.67;;;4.40;;
32407;SDS011;18869;55.970;37.502;2023-07-31T04:08:17;4.47;;;4.07;;
32407;SDS011;18869;55.970;37.502;2023-07-31T04:10:44;4.87;;;3.80;;
32407;SDS011;18869;55.970;37.502;2023-07-31T04:13:11;5.33;;;3.47;;
32407;SDS011;18869;55.970;37.502;2023-07-31T04:15:38;6.30;;;3.80;;
32407;SDS011;18869;55.970;37.502;2023-07-31T04:18:08;5.47;;;4.20;;
32407;SDS011;18869;55.970;37.502;2023-07-31T04:20:35;4.13;;;3.73;;
32407;SDS011;18869;55.970;37.502;2023-07-31T04:23:02;4.73;;;3.77;;
32407;SDS011;18869;55.970;37.502;2023-07-31T04:25:30;7.27;;;4.67;;
32407;SDS011;18869;55.970;37.502;2023-07-31T04:27:57;7.37;;;5.23;;
32407;SDS011;18869;55.970;37.502;2023-07-31T04:30:24;4.30;;;3.90;;
32407;SDS011;18869;55.970;37.502;2023-07-31T04:32:51;3.40;;;3.10;;
32407;SDS011;18869;55.970;37.502;2023-07-31T04:35:19;4.80;;;3.10;;
32407;SDS011;18869;55.970;37.502;2023-07-31T04:37:46;3.07;;;2.87;;
32407;SDS011;18869;55.970;37.502;2023-07-31T04:40:15;3.10;;;2.43;;
32407;SDS011;18869;55.970;37.502;2023-07-31T04:42:42;3.70;;;2.63;;
32407;SDS011;18869;55.970;37.502;2023-07-31T04:45:09;3.23;;;2.80;;
32407;SDS011;18869;55.970;37.502;2023-07-31T04:47:36;3.70;;;3.17;;
32407;SDS011;18869;55.970;37.502;2023-07-31T04:50:04;3.67;;;2.87;;
32407;SDS011;18869;55.970;37.502;2023-07-31T04:52:32;3.20;;;2.43;;
32407;SDS011;18869;55.970;37.502;2023-07-31T04:54:59;4.07;;;2.40;;
32407;SDS011;18869;55.970;37.502;2023-07-31T04:57:30;4.73;;;2.60;;
32407;SDS011;18869;55.970;37.502;2023-07-31T04:59:57;2.83;;;2.30;;
32407;SDS011;18869;55.970;37.502;2023-07-31T05:02:24;2.67;;;2.37;;
32407;SDS011;18869;55.970;37.502;2023-07-31T05:04:51;2.60;;;2.27;;
32407;SDS011;18869;55.970;37.502;2023-07-31T05:07:18;2.30;;;2.10;;
32407;SDS011;18869;55.970;37.502;2023-07-31T05:09:47;2.33;;;2.10;;
32407;SDS011;18869;55.970;37.502;2023-07-31T05:12:13;3.37;;;2.23;;
32407;SDS011;18869;55.970;37.502;2023-07-31T05:14:40;1.67;;;1.57;;
32407;SDS011;18869;55.970;37.502;2023-07-31T05:17:08;2.70;;;2.10;;
32407;SDS011;18869;55.970;37.502;2023-07-31T05:19:34;4.80;;;1.90;;
32407;SDS011;18869;55.970;37.502;2023-07-31T05:22:01;4.47;;;2.03;;
32407;SDS011;18869;55.970;37.502;2023-07-31T05:24:29;4.00;;;2.10;;
32407;SDS011;18869;55.970;37.502;2023-07-31T05:26:56;3.17;;;2.47;;
32407;SDS011;18869;55.970;37.502;2023-07-31T05:29:23;6.73;;;2.60;;
32407;SDS011;18869;55.970;37.502;2023-07-31T05:31:51;5.40;;;2.10;;
32407;SDS011;18869;55.970;37.502;2023-07-31T05:34:18;2.73;;;2.07;;
32407;SDS011;18869;55.970;37.502;2023-07-31T05:36:44;3.67;;;1.70;;
32407;SDS011;18869;55.970;37.502;2023-07-31T05:39:13;3.80;;;1.70;;
32407;SDS011;18869;55.970;37.502;2023-07-31T05:41:40;4.67;;;1.80;;
32407;SDS011;18869;55.970;37.502;2023-07-31T05:44:08;2.47;;;2.03;;
32407;SDS011;18869;55.970;37.502;2023-07-31T05:46:35;2.70;;;1.80;;
32407;SDS011;18869;55.970;37.502;2023-07-31T05:49:02;3.63;;;1.60;;
32407;SDS011;18869;55.970;37.502;2023-07-31T05:51:28;1.57;;;1.47;;
32407;SDS011;18869;55.970;37.502;2023-07-31T05:53:56;3.03;;;1.50;;
32407;SDS011;18869;55.970;37.502;2023-07-31T05:56:23;1.40;;;1.30;;
32407;SDS011;18869;55.970;37.502;2023-07-31T05:58:50;1.97;;;1.07;;
32407;SDS011;18869;55.970;37.502;2023-07-31T06:01:18;2.17;;;1.00;;
32407;SDS011;18869;55.970;37.502;2023-07-31T06:03:47;1.58;;;1.12;;
32407;SDS011;18869;55.970;37.502;2023-07-31T06:06:14;1.62;;;1.10;;
32407;SDS011;18869;55.970;37.502;2023-07-31T06:08:41;1.35;;;1.00;;
32407;SDS011;18869;55.970;37.502;2023-07-31T06:11:08;2.28;;;1.40;;
32407;SDS011;18869;55.970;37.502;2023-07-31T06:13:35;1.60;;;1.50;;
32407;SDS011;18869;55.970;37.502;2023-07-31T06:16:02;5.22;;;1.90;;
32407;SDS011;18869;55.970;37.502;2023-07-31T06:18:32;1.92;;;1.48;;
32407;SDS011;18869;55.970;37.502;2023-07-31T06:21:01;1.50;;;1.27;;
32407;SDS011;18869;55.970;37.502;2023-07-31T06:23:28;4.07;;;1.25;;
32407;SDS011;18869;55.970;37.502;2023-07-31T06:25:55;2.55;;;1.00;;
32407;SDS011;18869;55.970;37.502;2023-07-31T06:28:27;2.42;;;1.08;;
32407;SDS011;18869;55.970;37.502;2023-07-31T06:30:55;1.20;;;1.10;;
32407;SDS011;18869;55.970;37.502;2023-07-31T06:33:22;1.10;;;1.00;;
32407;SDS011;18869;55.970;37.502;2023-07-31T06:35:50;1.35;;;1.20;;
32407;SDS011;18869;55.970;37.502;2023-07-31T06:38:18;2.22;;;1.00;;
32407;SDS011;18869;55.970;37.502;2023-07-31T06:40:48;1.37;;;0.90;;
32407;SDS011;18869;55.970;37.502;2023-07-31T06:43:15;0.80;;;0.80;;
32407;SDS011;18869;55.970;37.502;2023-07-31T06:45:43;1.15;;;1.00;;
32407;SDS011;18869;55.970;37.502;2023-07-31T06:48:14;2.15;;;1.08;;
32407;SDS011;18869;55.970;37.502;2023-07-31T06:50:41;0.70;;;0.70;;
32407;SDS011;18869;55.970;37.502;2023-07-31T06:53:09;1.02;;;1.00;;
32407;SDS011;18869;55.970;37.502;2023-07-31T06:55:36;0.88;;;0.88;;
32407;SDS011;18869;55.970;37.502;2023-07-31T06:58:03;0.85;;;0.80;;
32407;SDS011;18869;55.970;37.502;2023-07-31T07:00:30;1.70;;;1.00;;
32407;SDS011;18869;55.970;37.502;2023-07-31T07:03:01;3.42;;;0.90;;
32407;SDS011;18869;55.970;37.502;2023-07-31T07:05:28;0.95;;;0.95;;
32407;SDS011;18869;55.970;37.502;2023-07-31T07:07:55;1.30;;;0.80;;
32407;SDS011;18869;55.970;37.502;2023-07-31T07:10:25;1.08;;;0.90;;
32407;SDS011;18869;55.970;37.502;2023-07-31T07:12:55;2.47;;;1.00;;
32407;SDS011;18869;55.970;37.502;2023-07-31T07:15:22;1.45;;;1.30;;
32407;SDS011;18869;55.970;37.502;2023-07-31T07:17:52;1.05;;;0.93;;
32407;SDS011;18869;55.970;37.502;2023-07-31T07:20:19;1.05;;;0.95;;
32407;SDS011;18869;55.970;37.502;2023-07-31T07:22:46;1.12;;;1.10;;
32407;SDS011;18869;55.970;37.502;2023-07-31T07:25:13;1.00;;;1.00;;
32407;SDS011;18869;55.970;37.502;2023-07-31T07:27:44;1.17;;;1.08;;
32407;SDS011;18869;55.970;37.502;2023-07-31T07:30:11;1.20;;;1.10;;
32407;SDS011;18869;55.970;37.502;2023-07-31T07:32:40;2.05;;;1.40;;
32407;SDS011;18869;55.970;37.502;2023-07-31T07:35:07;3.42;;;1.30;;
32407;SDS011;18869;55.970;37.502;2023-07-31T07:37:35;1.35;;;1.25;;
32407;SDS011;18869;55.970;37.502;2023-07-31T07:40:06;1.08;;;1.00;;
32407;SDS011;18869;55.970;37.502;2023-07-31T07:42:34;4.93;;;1.50;;
32407;SDS011;18869;55.970;37.502;2023-07-31T07:45:02;1.40;;;1.30;;
32407;SDS011;18869;55.970;37.502;2023-07-31T07:47:29;1.23;;;1.23;;
32407;SDS011;18869;55.970;37.502;2023-07-31T07:49:57;1.67;;;1.35;;
32407;SDS011;18869;55.970;37.502;2023-07-31T07:52:24;5.28;;;1.45;;
32407;SDS011;18869;55.970;37.502;2023-07-31T07:54:51;1.20;;;1.10;;
32407;SDS011;18869;55.970;37.502;2023-07-31T07:57:18;1.73;;;1.30;;
32407;SDS011;18869;55.970;37.502;2023-07-31T07:59:45;1.55;;;1.45;;
32407;SDS011;18869;55.970;37.502;2023-07-31T08:02:18;1.70;;;1.60;;
32407;SDS011;18869;55.970;37.502;2023-07-31T08:04:45;2.00;;;1.58;;
32407;SDS011;18869;55.970;37.502;2023-07-31T08:07:12;1.62;;;1.40;;
32407;SDS011;18869;55.970;37.502;2023-07-31T08:09:39;4.28;;;1.40;;
32407;SDS011;18869;55.970;37.502;2023-07-31T08:12:07;1.12;;;1.12;;
32407;SDS011;18869;55.970;37.502;2023-07-31T08:14:34;1.33;;;1.10;;
32407;SDS011;18869;55.970;37.502;2023-07-31T08:17:09;1.98;;;1.10;;
32407;SDS011;18869;55.970;37.502;2023-07-31T08:19:36;1.73;;;1.52;;
32407;SDS011;18869;55.970;37.502;2023-07-31T08:22:04;1.58;;;1.45;;
32407;SDS011;18869;55.970;37.502;2023-07-31T08:24:33;1.35;;;1.35;;
32407;SDS011;18869;55.970;37.502;2023-07-31T08:27:01;1.10;;;1.10;;
32407;SDS011;18869;55.970;37.502;2023-07-31T08:29:28;2.58;;;1.17;;
32407;SDS011;18869;55.970;37.502;2023-07-31T08:31:55;1.30;;;1.12;;
32407;SDS011;18869;55.970;37.502;2023-07-31T08:34:23;2.62;;;1.35;;
32407;SDS011;18869;55.970;37.502;2023-07-31T08:36:52;1.95;;;0.90;;
32407;SDS011;18869;55.970;37.502;2023-07-31T08:39:19;3.17;;;1.35;;
32407;SDS011;18869;55.970;37.502;2023-07-31T08:41:46;1.60;;;1.50;;
32407;SDS011;18869;55.970;37.502;2023-07-31T08:44:15;1.90;;;1.80;;
32407;SDS011;18869;55.970;37.502;2023-07-31T08:46:45;1.48;;;1.37;;
32407;SDS011;18869;55.970;37.502;2023-07-31T08:49:12;1.40;;;1.25;;
32407;SDS011;18869;55.970;37.502;2023-07-31T08:51:40;1.58;;;1.20;;
32407;SDS011;18869;55.970;37.502;2023-07-31T08:54:09;1.92;;;1.08;;
32407;SDS011;18869;55.970;37.502;2023-07-31T08:56:36;1.45;;;1.15;;
32407;SDS011;18869;55.970;37.502;2023-07-31T08:59:05;1.87;;;1.40;;
32407;SDS011;18869;55.970;37.502;2023-07-31T09:01:35;1.10;;;1.00;;
32407;SDS011;18869;55.970;37.502;2023-07-31T09:04:06;1.02;;;1.02;;
32407;SDS011;18869;55.970;37.502;2023-07-31T09:06:34;3.62;;;1.30;;
32407;SDS011;18869;55.970;37.502;2023-07-31T09:09:02;1.27;;;1.17;;
32407;SDS011;18869;55.970;37.502;2023-07-31T09:11:29;1.90;;;1.17;;
32407;SDS011;18869;55.970;37.502;2023-07-31T09:13:56;1.35;;;1.23;;
32407;SDS011;18869;55.970;37.502;2023-07-31T09:16:27;2.17;;;1.37;;
32407;SDS011;18869;55.970;37.502;2023-07-31T09:18:56;1.10;;;1.10;;
32407;SDS011;18869;55.970;37.502;2023-07-31T09:21:28;1.23;;;1.12;;
32407;SDS011;18869;55.970;37.502;2023-07-31T09:23:55;1.30;;;1.10;;
32407;SDS011;18869;55.970;37.502;2023-07-31T09:26:28;1.30;;;1.20;;
32407;SDS011;18869;55.970;37.502;2023-07-31T09:28:57;1.40;;;1.20;;
32407;SDS011;18869;55.970;37.502;2023-07-31T09:31:33;1.35;;;1.25;;
32407;SDS011;18869;55.970;37.502;2023-07-31T09:34:05;1.30;;;1.20;;
32407;SDS011;18869;55.970;37.502;2023-07-31T09:36:33;1.20;;;1.10;;
32407;SDS011;18869;55.970;37.502;2023-07-31T09:39:08;1.40;;;1.20;;
32407;SDS011;18869;55.970;37.502;2023-07-31T09:41:36;1.30;;;1.20;;
32407;SDS011;18869;55.970;37.502;2023-07-31T09:44:04;1.02;;;1.02;;
32407;SDS011;18869;55.970;37.502;2023-07-31T09:46:34;1.80;;;1.37;;
32407;SDS011;18869;55.970;37.502;2023-07-31T09:49:03;1.85;;;1.20;;
32407;SDS011;18869;55.970;37.502;2023-07-31T09:51:32;1.70;;;1.10;;
32407;SDS011;18869;55.970;37.502;2023-07-31T09:54:11;1.40;;;1.20;;
32407;SDS011;18869;55.970;37.502;2023-07-31T09:56:43;1.05;;;1.00;;
32407;SDS011;18869;55.970;37.502;2023-07-31T09:59:11;2.42;;;1.23;;
32407;SDS011;18869;55.970;37.502;2023-07-31T10:01:40;1.67;;;1.20;;
32407;SDS011;18869;55.970;37.502;2023-07-31T10:04:09;1.87;;;1.17;;
32407;SDS011;18869;55.970;37.502;2023-07-31T10:06:38;3.40;;;1.02;;
32407;SDS011;18869;55.970;37.502;2023-07-31T10:09:05;1.23;;;1.12;;
32407;SDS011;18869;55.970;37.502;2023-07-31T10:11:36;1.45;;;1.23;;
32407;SDS011;18869;55.970;37.502;2023-07-31T10:14:05;1.27;;;1.17;;
32407;SDS011;18869;55.970;37.502;2023-07-31T10:16:37;1.08;;;1.05;;
32407;SDS011;18869;55.970;37.502;2023-07-31T10:19:06;1.45;;;1.35;;
32407;SDS011;18869;55.970;37.502;2023-07-31T10:21:34;1.40;;;1.27;;
32407;SDS011;18869;55.970;37.502;2023-07-31T10:24:03;1.95;;;1.37;;
32407;SDS011;18869;55.970;37.502;2023-07-31T10:26:31;1.35;;;1.20;;
32407;SDS011;18869;55.970;37.502;2023-07-31T10:28:58;2.17;;;1.40;;
32407;SDS011;18869;55.970;37.502;2023-07-31T10:31:27;2.12;;;1.52;;
32407;SDS011;18869;55.970;37.502;2023-07-31T10:33:54;1.37;;;1.27;;
32407;SDS011;18869;55.970;37.502;2023-07-31T10:36:22;1.87;;;1.48;;
32407;SDS011;18869;55.970;37.502;2023-07-31T10:38:50;2.92;;;1.60;;
32407;SDS011;18869;55.970;37.502;2023-07-31T10:41:17;1.70;;;1.60;;
32407;SDS011;18869;55.970;37.502;2023-07-31T10:43:45;1.60;;;1.25;;
32407;SDS011;18869;55.970;37.502;2023-07-31T10:46:14;1.50;;;1.40;;
32407;SDS011;18869;55.970;37.502;2023-07-31T10:48:42;1.65;;;1.23;;
32407;SDS011;18869;55.970;37.502;2023-07-31T10:51:09;1.85;;;1.23;;
32407;SDS011;18869;55.970;37.502;2023-07-31T10:53:38;1.60;;;1.40;;
32407;SDS011;18869;55.970;37.502;2023-07-31T10:56:06;1.90;;;1.30;;
32407;SDS011;18869;55.970;37.502;2023-07-31T10:58:34;1.90;;;1.70;;
32407;SDS011;18869;55.970;37.502;2023-07-31T11:01:04;1.95;;;1.55;;
32407;SDS011;18869;55.970;37.502;2023-07-31T11:03:41;2.17;;;1.37;;
32407;SDS011;18869;55.970;37.502;2023-07-31T11:06:10;3.53;;;2.17;;
32407;SDS011;18869;55.970;37.502;2023-07-31T11:08:41;2.65;;;1.60;;
32407;SDS011;18869;55.970;37.502;2023-07-31T11:11:10;1.77;;;1.67;;
32407;SDS011;18869;55.970;37.502;2023-07-31T11:13:41;3.47;;;2.58;;
32407;SDS011;18869;55.970;37.502;2023-07-31T11:16:24;2.95;;;1.85;;
32407;SDS011;18869;55.970;37.502;2023-07-31T11:18:55;3.87;;;1.77;;
32407;SDS011;18869;55.970;37.502;2023-07-31T11:21:23;2.17;;;1.60;;
32407;SDS011;18869;55.970;37.502;2023-07-31T11:23:51;2.17;;;1.50;;
32407;SDS011;18869;55.970;37.502;2023-07-31T11:26:19;1.50;;;1.30;;
32407;SDS011;18869;55.970;37.502;2023-07-31T11:28:47;1.77;;;1.55;;
32407;SDS011;18869;55.970;37.502;2023-07-31T11:31:15;3.25;;;1.60;;
32407;SDS011;18869;55.970;37.502;2023-07-31T11:33:42;1.85;;;1.70;;
32407;SDS011;18869;55.970;37.502;2023-07-31T11:36:14;1.87;;;1.52;;
32407;SDS011;18869;55.970;37.502;2023-07-31T11:38:42;3.08;;;1.75;;
32407;SDS011;18869;55.970;37.502;2023-07-31T11:41:13;2.12;;;1.50;;
32407;SDS011;18869;55.970;37.502;2023-07-31T11:43:40;1.62;;;1.50;;
32407;SDS011;18869;55.970;37.502;2023-07-31T11:46:09;2.50;;;1.60;;
32407;SDS011;18869;55.970;37.502;2023-07-31T11:48:36;1.90;;;1.37;;
32407;SDS011;18869;55.970;37.502;2023-07-31T11:51:04;2.87;;;2.08;;
32407;SDS011;18869;55.970;37.502;2023-07-31T11:53:33;3.20;;;1.90;;
32407;SDS011;18869;55.970;37.502;2023-07-31T11:56:05;4.45;;;1.67;;
32407;SDS011;18869;55.970;37.502;2023-07-31T11:58:34;2.05;;;1.50;;
32407;SDS011;18869;55.970;37.502;2023-07-31T12:01:01;2.35;;;1.85;;
32407;SDS011;18869;55.970;37.502;2023-07-31T12:03:30;2.05;;;1.85;;
32407;SDS011;18869;55.970;37.502;2023-07-31T12:05:58;2.03;;;1.62;;
32407;SDS011;18869;55.970;37.502;2023-07-31T12:08:25;2.20;;;1.90;;
32407;SDS011;18869;55.970;37.502;2023-07-31T12:10:54;6.93;;;2.05;;
32407;SDS011;18869;55.970;37.502;2023-07-31T12:13:21;2.10;;;1.80;;
32407;SDS011;18869;55.970;37.502;2023-07-31T12:15:53;2.10;;;1.90;;
32407;SDS011;18869;55.970;37.502;2023-07-31T12:18:22;2.47;;;2.00;;
32407;SDS011;18869;55.970;37.502;2023-07-31T12:20:53;4.53;;;1.80;;
32407;SDS011;18869;55.970;37.502;2023-07-31T12:23:22;3.90;;;2.00;;
32407;SDS011;18869;55.970;37.502;2023-07-31T12:26:02;2.20;;;1.80;;
32407;SDS011;18869;55.970;37.502;2023-07-31T12:28:29;3.33;;;1.90;;
32407;SDS011;18869;55.970;37.502;2023-07-31T12:30:58;2.70;;;2.10;;
32407;SDS011;18869;55.970;37.502;2023-07-31T12:33:30;2.37;;;1.97;;
32407;SDS011;18869;55.970;37.502;2023-07-31T12:36:00;2.67;;;2.07;;
32407;SDS011;18869;55.970;37.502;2023-07-31T12:38:27;7.40;;;1.97;;
32407;SDS011;18869;55.970;37.502;2023-07-31T12:40:54;4.70;;;2.47;;
32407;SDS011;18869;55.970;37.502;2023-07-31T12:43:24;5.40;;;2.67;;
32407;SDS011;18869;55.970;37.502;2023-07-31T12:45:51;4.40;;;2.50;;
32407;SDS011;18869;55.970;37.502;2023-07-31T12:48:18;4.83;;;2.30;;
32407;SDS011;18869;55.970;37.502;2023-07-31T12:50:45;2.33;;;2.10;;
32407;SDS011;18869;55.970;37.502;2023-07-31T12:53:12;2.70;;;2.20;;
32407;SDS011;18869;55.970;37.502;2023-07-31T12:55:39;1.73;;;1.50;;
32407;SDS011;18869;55.970;37.502;2023-07-31T12:58:06;3.43;;;1.80;;
32407;SDS011;18869;55.970;37.502;2023-07-31T13:00:34;2.83;;;1.60;;
32407;SDS011;18869;55.970;37.502;2023-07-31T13:03:01;3.77;;;2.00;;
32407;SDS011;18869;55.970;37.502;2023-07-31T13:05:29;2.20;;;1.63;;
32407;SDS011;18869;55.970;37.502;2023-07-31T13:07:56;2.03;;;1.73;;
32407;SDS011;18869;55.970;37.502;2023-07-31T13:10:23;4.03;;;2.00;;
32407;SDS011;18869;55.970;37.502;2023-07-31T13:12:57;3.37;;;1.80;;
32407;SDS011;18869;55.970;37.502;2023-07-31T13:15:24;2.63;;;1.80;;
32407;SDS011;18869;55.970;37.502;2023-07-31T13:17:52;2.87;;;2.10;;
32407;SDS011;18869;55.970;37.502;2023-07-31T13:20:19;2.90;;;2.20;;
32407;SDS011;18869;55.970;37.502;2023-07-31T13:22:46;3.20;;;2.20;;
32407;SDS011;18869;55.970;37.502;2023-07-31T13:25:13;5.47;;;1.80;;
32407;SDS011;18869;55.970;37.502;2023-07-31T13:27:40;2.20;;;2.00;;
32407;SDS011;18869;55.970;37.502;2023-07-31T13:30:07;1.73;;;1.63;;
32407;SDS011;18869;55.970;37.502;2023-07-31T13:32:35;2.00;;;1.70;;
32407;SDS011;18869;55.970;37.502;2023-07-31T13:35:06;3.07;;;2.00;;
32407;SDS011;18869;55.970;37.502;2023-07-31T13:37:33;2.77;;;2.10;;
32407;SDS011;18869;55.970;37.502;2023-07-31T13:40:00;3.60;;;1.90;;
32407;SDS011;18869;55.970;37.502;2023-07-31T13:42:31;1.87;;;1.70;;
32407;SDS011;18869;55.970;37.502;2023-07-31T13:44:59;5.07;;;1.90;;
32407;SDS011;18869;55.970;37.502;2023-07-31T13:47:26;2.97;;;1.70;;
32407;SDS011;18869;55.970;37.502;2023-07-31T13:49:53;2.90;;;2.03;;
32407;SDS011;18869;55.970;37.502;2023-07-31T13:52:21;6.67;;;2.00;;
32407;SDS011;18869;55.970;37.502;2023-07-31T13:54:48;4.10;;;2.60;;
32407;SDS011;18869;55.970;37.502;2023-07-31T13:57:15;4.73;;;2.33;;
32407;SDS011;18869;55.970;37.502;2023-07-31T13:59:45;5.33;;;2.53;;
32407;SDS011;18869;55.970;37.502;2023-07-31T14:02:17;5.23;;;2.30;;
32407;SDS011;18869;55.970;37.502;2023-07-31T14:04:45;4.50;;;2.27;;
32407;SDS011;18869;55.970;37.502;2023-07-31T14:07:12;2.93;;;1.90;;
32407;SDS011;18869;55.970;37.502;2023-07-31T14:09:40;2.90;;;2.20;;
32407;SDS011;18869;55.970;37.502;2023-07-31T14:12:07;4.03;;;2.53;;
32407;SDS011;18869;55.970;37.502;2023-07-31T14:14:34;2.87;;;1.87;;
32407;SDS011;18869;55.970;37.502;2023-07-31T14:17:01;3.47;;;2.03;;
32407;SDS011;18869;55.970;37.502;2023-07-31T14:19:29;4.47;;;2.47;;
32407;SDS011;18869;55.970;37.502;2023-07-31T14:21:58;5.63;;;2.00;;
32407;SDS011;18869;55.970;37.502;2023-07-31T14:24:25;3.13;;;2.43;;
32407;SDS011;18869;55.970;37.502;2023-07-31T14:26:53;2.27;;;1.80;;
32407;SDS011;18869;55.970;37.502;2023-07-31T14:29:20;2.63;;;2.10;;
32407;SDS011;18869;55.970;37.502;2023-07-31T14:31:47;4.60;;;2.23;;
32407;SDS011;18869;55.970;37.502;2023-07-31T14:34:14;6.07;;;2.27;;
32407;SDS011;18869;55.970;37.502;2023-07-31T14:36:42;2.57;;;2.07;;
32407;SDS011;18869;55.970;37.502;2023-07-31T14:39:10;4.50;;;2.20;;